Time;durP1;ratioP1;P1;durP2;ratioP2;P2;SDS_P1;SDS_P2;PMS_P1;PMS_P2;Temp;Humidity;BMP_temperature;BMP_pressure;BME280_temperature;BME280_humidity;BME280_pressure;Samples;Min_cycle;Max_cycle;Signal;HPM_P1;HPM_P2
2023/08/10 00:02:06;;;;;;;3.37;2.43;;;15.50;99.90;;;;;;5074091;28;20235;-55
2023/08/10 00:04:33;;;;;;;3.57;2.10;;;15.50;99.90;;;;;;5082727;28;20224;-54
2023/08/10 00:06:59;;;;;;;2.47;2.23;;;15.40;99.90;;;;;;5083528;28;20277;-56
2023/08/10 00:09:24;;;;;;;6.20;2.50;;;15.30;99.90;;;;;;5083224;28;20300;-55
2023/08/10 00:11:50;;;;;;;4.53;2.57;;;15.30;99.90;;;;;;5079578;28;20660;-56
2023/08/10 00:14:15;;;;;;;5.93;2.63;;;15.30;99.90;;;;;;5081740;28;20224;-56
2023/08/10 00:16:41;;;;;;;3.70;2.60;;;15.30;99.90;;;;;;5083332;28;20609;-56
2023/08/10 00:19:06;;;;;;;3.93;2.20;;;15.30;99.90;;;;;;5080063;28;20214;-56
2023/08/10 00:21:32;;;;;;;3.90;2.10;;;15.40;99.90;;;;;;5061205;28;20764;-56
2023/08/10 00:23:57;;;;;;;4.67;2.13;;;15.40;99.90;;;;;;5082483;28;20193;-56
2023/08/10 00:26:23;;;;;;;4.20;2.47;;;15.40;99.90;;;;;;5077076;28;20193;-57
2023/08/10 00:28:49;;;;;;;2.70;2.20;;;15.40;99.90;;;;;;5082191;28;20251;-56
2023/08/10 00:31:15;;;;;;;4.60;2.20;;;15.40;99.90;;;;;;5080888;28;20229;-57
2023/08/10 00:33:41;;;;;;;5.13;2.53;;;15.30;99.90;;;;;;5060915;28;20251;-56
2023/08/10 00:36:07;;;;;;;3.90;2.50;;;15.40;99.90;;;;;;5082250;28;20209;-56
2023/08/10 00:38:38;;;;;;;2.43;2.23;;;15.40;99.90;;;;;;5064232;28;20201;-56
2023/08/10 00:41:03;;;;;;;4.60;1.97;;;15.40;99.90;;;;;;5082629;28;20222;-56
2023/08/10 00:43:29;;;;;;;2.53;2.20;;;15.30;99.90;;;;;;5082520;28;20197;-56
2023/08/10 00:45:55;;;;;;;3.17;2.30;;;15.40;99.90;;;;;;5078290;28;20212;-56
2023/08/10 00:48:22;;;;;;;3.27;2.43;;;15.40;99.90;;;;;;5051999;28;20194;-55
2023/08/10 00:50:49;;;;;;;2.30;2.07;;;15.40;99.90;;;;;;5077834;28;20871;-56
2023/08/10 00:53:16;;;;;;;4.37;2.40;;;15.30;99.90;;;;;;5060713;28;20221;-56
2023/08/10 00:55:43;;;;;;;2.73;1.90;;;15.40;99.90;;;;;;5053685;28;20193;-56
2023/08/10 00:58:11;;;;;;;3.00;1.90;;;15.40;99.90;;;;;;5082334;28;20189;-56
2023/08/10 01:00:37;;;;;;;3.53;2.17;;;15.50;99.90;;;;;;5061715;28;20239;-56
2023/08/10 01:03:04;;;;;;;2.27;2.10;;;15.40;99.90;;;;;;5082489;28;20662;-57
2023/08/10 01:05:35;;;;;;;2.20;2.00;;;15.30;99.90;;;;;;5081831;28;20197;-54
2023/08/10 01:08:10;;;;;;;2.43;1.70;;;15.30;99.90;;;;;;5081269;28;20827;-55
2023/08/10 01:10:47;;;;;;;3.33;1.63;;;15.20;99.90;;;;;;5069356;28;20231;-57
2023/08/10 01:13:25;;;;;;;3.53;1.83;;;15.20;99.90;;;;;;5060175;28;20189;-57
2023/08/10 01:15:56;;;;;;;2.53;2.00;;;15.10;99.90;;;;;;5078034;28;20221;-55
2023/08/10 01:18:27;;;;;;;3.37;1.67;;;15.10;99.90;;;;;;5079908;28;20343;-55
2023/08/10 01:20:54;;;;;;;2.70;1.60;;;15.20;99.90;;;;;;5055228;28;20566;-55
2023/08/10 01:23:39;;;;;;;3.20;2.00;;;15.30;99.90;;;;;;5082642;28;20197;-54
2023/08/10 01:26:05;;;;;;;3.20;1.80;;;15.40;99.90;;;;;;5074835;28;20658;-54
2023/08/10 01:28:33;;;;;;;3.50;2.03;;;15.40;99.90;;;;;;5081255;28;20209;-56
2023/08/10 01:31:00;;;;;;;2.70;1.87;;;15.40;99.90;;;;;;5075425;28;20284;-55
2023/08/10 01:33:26;;;;;;;2.73;2.20;;;15.40;99.90;;;;;;5081453;28;20864;-56
2023/08/10 01:35:52;;;;;;;3.33;2.13;;;15.30;99.90;;;;;;5057162;28;20205;-56
2023/08/10 01:38:17;;;;;;;6.13;2.60;;;15.20;99.90;;;;;;5080889;28;20193;-56
2023/08/10 01:40:43;;;;;;;3.80;2.10;;;15.20;99.90;;;;;;5081298;28;20190;-56
2023/08/10 01:43:09;;;;;;;4.53;2.53;;;15.20;99.90;;;;;;5062679;28;20284;-56
2023/08/10 01:45:34;;;;;;;3.40;2.40;;;15.20;99.90;;;;;;5058993;28;20315;-56
2023/08/10 01:48:04;;;;;;;2.87;2.37;;;15.20;99.90;;;;;;5081840;28;20559;-56
2023/08/10 01:50:34;;;;;;;2.20;1.87;;;15.20;99.90;;;;;;5079724;28;20257;-56
2023/08/10 01:53:05;;;;;;;3.17;2.17;;;15.10;99.90;;;;;;5074894;28;20204;-55
2023/08/10 01:55:31;;;;;;;3.33;2.17;;;15.10;99.90;;;;;;5072220;28;20227;-56
2023/08/10 01:57:57;;;;;;;3.40;1.90;;;15.20;99.90;;;;;;5081122;28;20202;-55
2023/08/10 02:00:22;;;;;;;3.77;2.27;;;15.30;99.90;;;;;;5079506;28;20246;-55
2023/08/10 02:02:48;;;;;;;9.80;3.93;;;15.20;99.90;;;;;;5081869;28;20185;-56
2023/08/10 02:05:14;;;;;;;10.87;4.13;;;15.10;99.90;;;;;;5083497;28;20685;-56
2023/08/10 02:07:41;;;;;;;6.23;3.63;;;14.90;99.90;;;;;;5082682;28;20679;-56
2023/08/10 02:10:07;;;;;;;3.33;2.10;;;15.00;99.90;;;;;;5085631;28;20282;-56
2023/08/10 02:12:33;;;;;;;3.17;1.97;;;14.90;99.90;;;;;;5066835;28;20675;-56
2023/08/10 02:14:59;;;;;;;1.63;1.53;;;14.90;99.90;;;;;;5085250;28;20260;-56
2023/08/10 02:17:34;;;;;;;3.40;2.30;;;14.90;99.90;;;;;;5085102;28;20201;-60
2023/08/10 02:20:11;;;;;;;3.13;2.27;;;14.90;99.90;;;;;;5055906;28;20197;-59
2023/08/10 02:22:57;;;;;;;2.50;2.10;;;15.00;99.90;;;;;;5063811;28;20224;-58
2023/08/10 02:25:23;;;;;;;3.10;2.13;;;14.90;99.90;;;;;;5076844;28;20314;-63
2023/08/10 02:27:52;;;;;;;2.37;1.87;;;14.90;99.90;;;;;;5083321;28;20201;-55
2023/08/10 02:30:17;;;;;;;2.43;2.23;;;14.80;99.90;;;;;;5075993;28;20226;-55
2023/08/10 02:32:43;;;;;;;4.90;2.20;;;14.80;99.90;;;;;;5061345;28;20197;-55
2023/08/10 02:35:09;;;;;;;3.40;1.97;;;14.70;99.90;;;;;;5086024;28;20201;-55
2023/08/10 02:37:35;;;;;;;3.87;2.23;;;14.60;99.90;;;;;;5084715;28;20229;-55
2023/08/10 02:40:04;;;;;;;3.87;2.07;;;14.60;99.90;;;;;;5078041;28;20254;-55
2023/08/10 02:42:29;;;;;;;4.07;2.70;;;14.60;99.90;;;;;;5084596;28;20220;-55
2023/08/10 02:44:55;;;;;;;4.07;2.10;;;14.60;99.90;;;;;;5080937;28;20260;-55
2023/08/10 02:47:20;;;;;;;3.30;2.40;;;14.60;99.90;;;;;;5085181;28;20204;-55
2023/08/10 02:49:46;;;;;;;3.03;2.27;;;14.60;99.90;;;;;;5062863;28;20222;-56
2023/08/10 02:52:11;;;;;;;2.43;2.23;;;14.60;99.90;;;;;;5062305;28;20190;-55
2023/08/10 02:54:37;;;;;;;2.50;2.30;;;14.60;99.90;;;;;;5080718;28;20181;-56
2023/08/10 02:57:03;;;;;;;8.40;3.20;;;14.60;99.90;;;;;;5084540;28;20659;-56
2023/08/10 02:59:28;;;;;;;6.97;2.80;;;14.40;99.90;;;;;;5084815;28;20189;-55
2023/08/10 03:01:55;;;;;;;8.57;3.77;;;14.40;99.90;;;;;;5082275;28;20250;-55
2023/08/10 03:04:20;;;;;;;3.30;2.47;;;14.30;99.90;;;;;;5085056;28;20639;-55
2023/08/10 03:06:46;;;;;;;4.03;2.80;;;14.30;99.90;;;;;;5084487;28;20208;-55
2023/08/10 03:09:11;;;;;;;3.17;2.83;;;14.30;99.90;;;;;;5084090;28;20296;-55
2023/08/10 03:11:37;;;;;;;3.93;3.13;;;14.40;99.90;;;;;;5084589;28;20194;-55
2023/08/10 03:14:02;;;;;;;4.77;2.60;;;14.40;99.90;;;;;;5084342;28;20201;-55
2023/08/10 03:16:29;;;;;;;4.03;3.50;;;14.50;99.90;;;;;;5084455;28;20232;-55
2023/08/10 03:18:55;;;;;;;5.87;3.47;;;14.50;99.90;;;;;;5083940;28;20212;-55
2023/08/10 03:21:20;;;;;;;4.00;2.87;;;14.60;99.90;;;;;;5065985;28;20189;-55
2023/08/10 03:23:46;;;;;;;4.10;2.80;;;14.60;99.90;;;;;;5081871;28;20246;-58
2023/08/10 03:26:11;;;;;;;3.27;2.97;;;14.60;99.90;;;;;;5064983;28;20651;-55
2023/08/10 03:28:37;;;;;;;4.87;2.70;;;14.60;99.90;;;;;;5083490;28;20727;-54
2023/08/10 03:31:02;;;;;;;5.47;2.67;;;14.60;99.90;;;;;;5083040;28;20198;-55
2023/08/10 03:33:28;;;;;;;3.20;2.80;;;14.50;99.90;;;;;;5079634;28;20245;-55
2023/08/10 03:35:54;;;;;;;3.60;2.80;;;14.50;99.90;;;;;;5084037;28;20630;-55
2023/08/10 03:38:19;;;;;;;11.87;3.00;;;14.40;99.90;;;;;;5083577;28;20193;-55
2023/08/10 03:40:45;;;;;;;2.60;2.37;;;14.50;99.90;;;;;;5084186;28;20190;-56
2023/08/10 03:43:10;;;;;;;7.00;3.00;;;14.50;99.90;;;;;;5080273;28;20877;-55
2023/08/10 03:45:36;;;;;;;4.67;2.47;;;14.50;99.90;;;;;;5079302;28;20723;-59
2023/08/10 03:48:02;;;;;;;4.57;3.07;;;14.50;99.90;;;;;;5081506;28;20198;-57
2023/08/10 03:50:28;;;;;;;3.43;2.70;;;14.50;99.90;;;;;;5080125;28;20677;-57
2023/08/10 03:52:53;;;;;;;3.00;2.43;;;14.30;99.90;;;;;;5083811;28;20300;-61
2023/08/10 03:55:19;;;;;;;4.13;2.67;;;14.20;99.90;;;;;;5083387;28;20190;-55
2023/08/10 03:57:45;;;;;;;3.40;2.30;;;14.20;99.90;;;;;;5083924;28;20274;-56
2023/08/10 04:00:12;;;;;;;3.77;2.37;;;14.20;99.90;;;;;;5083684;28;20189;-54
2023/08/10 04:02:38;;;;;;;6.07;4.23;;;14.20;99.90;;;;;;5081332;28;20294;-55
2023/08/10 04:05:06;;;;;;;4.37;3.07;;;14.20;99.90;;;;;;5077533;28;20225;-55
2023/08/10 04:07:39;;;;;;;8.37;3.20;;;14.30;99.90;;;;;;5075804;28;20201;-56
2023/08/10 04:10:10;;;;;;;5.20;3.07;;;14.30;99.90;;;;;;5060560;28;20225;-57
2023/08/10 04:12:36;;;;;;;3.37;2.57;;;14.40;99.90;;;;;;5081438;28;20178;-55
2023/08/10 04:15:03;;;;;;;5.30;2.93;;;14.40;99.90;;;;;;5082553;28;20237;-57
2023/08/10 04:17:29;;;;;;;4.33;2.90;;;14.40;99.90;;;;;;5065205;28;20306;-56
2023/08/10 04:19:56;;;;;;;4.03;2.83;;;14.40;99.90;;;;;;5082630;28;20194;-58
2023/08/10 04:22:22;;;;;;;3.77;2.97;;;14.40;99.90;;;;;;5081966;28;20185;-58
2023/08/10 04:24:47;;;;;;;4.90;3.03;;;14.40;99.90;;;;;;5082196;28;20207;-53
2023/08/10 04:27:12;;;;;;;5.13;3.00;;;14.50;99.90;;;;;;5076288;28;20206;-58
2023/08/10 04:29:43;;;;;;;4.03;2.47;;;14.50;99.90;;;;;;5081564;28;20256;-57
2023/08/10 04:32:08;;;;;;;3.23;2.80;;;14.50;99.90;;;;;;5077333;28;20248;-54
2023/08/10 04:34:34;;;;;;;3.63;2.80;;;14.40;99.90;;;;;;5078879;28;20198;-54
2023/08/10 04:36:59;;;;;;;5.57;4.57;;;14.40;99.90;;;;;;5082778;28;20197;-57
2023/08/10 04:39:25;;;;;;;4.80;3.00;;;14.50;99.90;;;;;;5078783;28;20186;-55
2023/08/10 04:41:50;;;;;;;6.33;2.83;;;14.50;99.90;;;;;;5079404;28;20221;-61
2023/08/10 04:44:16;;;;;;;5.20;3.10;;;14.60;99.90;;;;;;5078004;28;20284;-57
2023/08/10 04:46:41;;;;;;;7.70;3.17;;;14.60;99.90;;;;;;5081688;28;20193;-65
2023/08/10 04:49:07;;;;;;;3.53;2.87;;;14.60;99.90;;;;;;5082466;28;20221;-59
2023/08/10 04:51:32;;;;;;;5.00;2.63;;;14.70;99.90;;;;;;5082347;28;20482;-59
2023/08/10 04:53:58;;;;;;;5.70;2.23;;;14.80;99.90;;;;;;5078183;28;20185;-54
2023/08/10 04:56:23;;;;;;;5.33;2.90;;;14.80;99.90;;;;;;5080978;28;20185;-53
2023/08/10 04:58:49;;;;;;;8.17;2.40;;;14.80;99.90;;;;;;5081743;28;20684;-53
2023/08/10 05:01:14;;;;;;;5.50;2.70;;;14.80;99.90;;;;;;5080976;28;20193;-56
2023/08/10 05:03:40;;;;;;;7.77;2.83;;;14.90;99.90;;;;;;5079922;28;20200;-56
2023/08/10 05:06:06;;;;;;;6.03;2.83;;;14.90;99.90;;;;;;5066761;28;20926;-56
2023/08/10 05:08:31;;;;;;;6.53;3.40;;;14.90;99.90;;;;;;5079912;28;20205;-55
2023/08/10 05:11:00;;;;;;;5.27;3.60;;;14.70;99.90;;;;;;5081082;28;20193;-56
2023/08/10 05:13:25;;;;;;;4.23;2.23;;;14.80;99.90;;;;;;5081495;28;20193;-57
2023/08/10 05:15:51;;;;;;;7.53;3.03;;;14.80;99.90;;;;;;5080953;28;20259;-56
2023/08/10 05:18:20;;;;;;;4.93;2.27;;;14.90;99.90;;;;;;5080954;28;20232;-56
2023/08/10 05:20:45;;;;;;;5.80;3.10;;;14.80;99.90;;;;;;5081431;28;20189;-57
2023/08/10 05:23:11;;;;;;;6.57;2.90;;;14.70;99.90;;;;;;5081499;28;21030;-56
2023/08/10 05:25:37;;;;;;;3.60;2.03;;;14.70;99.90;;;;;;5078799;28;20197;-56
2023/08/10 05:28:03;;;;;;;6.90;2.30;;;14.80;99.90;;;;;;5081021;28;20204;-56
2023/08/10 05:30:28;;;;;;;7.20;2.40;;;14.70;99.90;;;;;;5062607;28;20224;-57
2023/08/10 05:32:54;;;;;;;8.87;2.83;;;14.80;99.90;;;;;;5070930;28;20209;-56
2023/08/10 05:35:21;;;;;;;4.70;2.50;;;15.00;99.90;;;;;;5080774;28;20229;-56
2023/08/10 05:37:46;;;;;;;5.00;2.70;;;15.10;99.90;;;;;;5080467;28;20197;-54
2023/08/10 05:40:12;;;;;;;2.23;1.83;;;15.00;99.90;;;;;;5079826;28;20189;-54
2023/08/10 05:42:39;;;;;;;3.43;2.33;;;15.10;99.90;;;;;;5061453;28;20632;-57
2023/08/10 05:45:19;;;;;;;5.33;2.23;;;15.10;99.90;;;;;;5078687;28;20258;-57
2023/08/10 05:47:45;;;;;;;4.60;1.83;;;15.00;99.90;;;;;;5055038;28;20271;-55
2023/08/10 05:50:12;;;;;;;5.93;2.33;;;14.90;99.90;;;;;;5080838;28;20304;-55
2023/08/10 05:52:37;;;;;;;3.20;2.10;;;14.90;99.90;;;;;;5081211;28;20200;-54
2023/08/10 05:55:04;;;;;;;16.40;2.60;;;14.80;99.90;;;;;;5080760;28;20193;-55
2023/08/10 05:57:29;;;;;;;5.73;2.13;;;14.90;99.90;;;;;;5059209;28;20213;-59
2023/08/10 05:59:55;;;;;;;6.93;2.23;;;15.10;99.90;;;;;;5081028;28;20270;-57
2023/08/10 06:02:21;;;;;;;6.00;2.73;;;14.90;99.90;;;;;;5070191;28;20247;-57
2023/08/10 06:04:47;;;;;;;5.10;2.80;;;15.00;99.90;;;;;;5077826;28;20243;-56
2023/08/10 06:07:12;;;;;;;8.23;3.07;;;15.00;99.90;;;;;;5071154;28;20202;-60
2023/08/10 06:09:38;;;;;;;5.03;2.23;;;15.10;99.90;;;;;;5076014;28;20221;-53
2023/08/10 06:12:04;;;;;;;6.13;1.90;;;15.10;99.90;;;;;;5074383;28;20201;-54
2023/08/10 06:14:30;;;;;;;4.23;2.00;;;15.20;99.90;;;;;;5078550;28;20612;-54
2023/08/10 06:16:55;;;;;;;7.20;1.90;;;15.30;99.90;;;;;;5080748;28;20317;-55
2023/08/10 06:19:21;;;;;;;5.53;2.33;;;15.40;99.90;;;;;;5061192;28;20296;-55
2023/08/10 06:21:46;;;;;;;9.33;2.60;;;15.30;99.90;;;;;;5080742;28;20507;-56
2023/08/10 06:24:12;;;;;;;3.10;1.63;;;15.40;99.90;;;;;;5080029;28;20194;-55
2023/08/10 06:26:38;;;;;;;6.63;1.97;;;15.40;99.90;;;;;;5076289;28;20980;-57
2023/08/10 06:29:04;;;;;;;6.90;2.03;;;15.50;99.90;;;;;;5077652;28;20255;-55
2023/08/10 06:31:30;;;;;;;8.80;2.27;;;15.50;99.90;;;;;;5079674;28;20189;-54
2023/08/10 06:33:56;;;;;;;7.67;2.30;;;15.60;99.90;;;;;;5078397;28;20285;-54
2023/08/10 06:36:21;;;;;;;5.87;2.17;;;15.50;99.90;;;;;;5079808;28;20288;-54
2023/08/10 06:38:47;;;;;;;8.23;2.47;;;15.60;99.90;;;;;;5080093;28;20282;-55
2023/08/10 06:41:13;;;;;;;5.00;2.37;;;15.60;99.90;;;;;;5079825;28;20197;-59
2023/08/10 06:43:38;;;;;;;4.30;1.70;;;15.60;99.90;;;;;;5078162;28;20197;-56
2023/08/10 06:46:04;;;;;;;7.33;1.97;;;15.50;99.90;;;;;;5078677;28;20201;-56
2023/08/10 06:48:29;;;;;;;8.67;1.90;;;15.60;99.90;;;;;;5076051;28;20255;-56
2023/08/10 06:50:55;;;;;;;5.67;2.23;;;15.60;99.90;;;;;;5082728;28;20752;-56
2023/08/10 06:53:21;;;;;;;10.00;2.33;;;15.60;99.90;;;;;;5084698;28;20216;-56
2023/08/10 06:55:47;;;;;;;12.70;2.30;;;15.60;99.90;;;;;;5074130;28;20221;-56
2023/08/10 06:58:13;;;;;;;5.20;1.57;;;15.60;99.90;;;;;;5079993;28;20251;-56
2023/08/10 07:00:38;;;;;;;4.13;1.47;;;15.80;99.90;;;;;;5070630;28;20194;-58
2023/08/10 07:03:06;;;;;;;6.13;2.33;;;15.90;99.90;;;;;;5081861;28;20213;-53
2023/08/10 07:05:36;;;;;;;8.93;2.23;;;16.00;99.90;;;;;;5082993;28;20189;-53
2023/08/10 07:08:02;;;;;;;2.70;1.40;;;16.00;99.90;;;;;;5063271;28;20189;-53
2023/08/10 07:10:28;;;;;;;6.83;2.10;;;16.10;99.90;;;;;;5060521;28;20218;-57
2023/08/10 07:12:53;;;;;;;5.60;1.90;;;16.20;99.90;;;;;;5080938;28;20193;-56
2023/08/10 07:15:19;;;;;;;5.80;1.83;;;16.30;99.90;;;;;;5082976;28;20253;-54
2023/08/10 07:17:44;;;;;;;7.70;2.13;;;16.40;99.90;;;;;;5078464;28;20690;-56
2023/08/10 07:20:10;;;;;;;5.87;1.57;;;16.40;99.90;;;;;;5081461;28;20201;-54
2023/08/10 07:22:36;;;;;;;6.60;1.43;;;16.30;99.90;;;;;;5083722;28;20189;-57
2023/08/10 07:25:05;;;;;;;4.30;1.33;;;16.60;99.90;;;;;;5080682;28;20182;-59
2023/08/10 07:27:34;;;;;;;4.80;1.70;;;16.60;99.90;;;;;;5063764;28;20190;-53
2023/08/10 07:30:01;;;;;;;5.83;1.83;;;16.70;99.90;;;;;;5082478;28;20201;-54
2023/08/10 07:32:29;;;;;;;6.83;2.17;;;16.80;99.90;;;;;;5060006;28;20241;-55
2023/08/10 07:34:55;;;;;;;7.93;1.97;;;16.70;99.90;;;;;;5079285;28;20212;-54
2023/08/10 07:37:21;;;;;;;4.97;2.07;;;16.70;99.90;;;;;;5081800;28;20613;-54
2023/08/10 07:39:47;;;;;;;5.13;2.03;;;16.60;99.90;;;;;;5077864;28;20202;-54
2023/08/10 07:42:13;;;;;;;2.23;1.30;;;16.50;99.90;;;;;;5080263;28;20177;-54
2023/08/10 07:44:38;;;;;;;4.23;1.63;;;16.50;99.90;;;;;;5081088;28;20196;-60
2023/08/10 07:47:04;;;;;;;5.07;2.23;;;16.40;99.90;;;;;;5063470;28;20193;-58
2023/08/10 07:49:31;;;;;;;2.40;1.40;;;16.40;99.90;;;;;;5063177;28;20209;-53
2023/08/10 07:51:57;;;;;;;4.10;1.37;;;16.50;99.90;;;;;;5082777;28;20861;-53
2023/08/10 07:54:22;;;;;;;3.87;1.10;;;16.60;99.90;;;;;;5082090;28;20217;-54
2023/08/10 07:56:48;;;;;;;6.60;1.77;;;16.90;99.90;;;;;;5082269;28;20245;-55
2023/08/10 07:59:13;;;;;;;4.47;1.50;;;16.90;99.90;;;;;;5060956;28;20198;-55
2023/08/10 08:01:39;;;;;;;5.10;1.53;;;16.80;99.90;;;;;;5077365;28;20653;-54
2023/08/10 08:04:05;;;;;;;9.20;4.37;;;16.80;99.90;;;;;;5080890;28;20212;-54
2023/08/10 08:06:31;;;;;;;3.80;1.33;;;16.90;99.90;;;;;;5081707;28;20221;-55
2023/08/10 08:08:58;;;;;;;6.57;1.63;;;16.80;99.90;;;;;;5082275;28;20660;-54
2023/08/10 08:11:23;;;;;;;3.83;1.57;;;16.90;99.90;;;;;;5077635;28;20308;-54
2023/08/10 08:13:49;;;;;;;3.00;1.50;;;17.00;99.90;;;;;;5080132;28;20308;-55
2023/08/10 08:16:15;;;;;;;2.50;1.40;;;16.90;99.90;;;;;;5082087;28;20263;-59
2023/08/10 08:18:49;;;;;;;6.47;1.63;;;16.90;99.90;;;;;;5081961;28;20319;-59
2023/08/10 08:21:17;;;;;;;4.47;1.57;;;16.90;99.90;;;;;;5059572;28;20222;-56
2023/08/10 08:23:43;;;;;;;2.30;1.17;;;17.10;99.90;;;;;;5060108;28;20198;-57
2023/08/10 08:26:09;;;;;;;2.87;1.50;;;17.30;99.90;;;;;;5075233;28;20232;-56
2023/08/10 08:28:35;;;;;;;7.13;2.27;;;17.40;99.90;;;;;;5081640;28;20288;-56
2023/08/10 08:31:01;;;;;;;4.20;1.53;;;17.10;99.90;;;;;;5081219;28;20603;-53
2023/08/10 08:33:26;;;;;;;5.27;1.70;;;17.20;99.90;;;;;;5081334;28;20257;-54
2023/08/10 08:35:52;;;;;;;2.10;1.30;;;17.30;99.90;;;;;;5080500;28;20202;-55
2023/08/10 08:38:18;;;;;;;4.37;1.60;;;17.40;99.90;;;;;;5081740;28;20701;-54
2023/08/10 08:40:43;;;;;;;7.10;1.83;;;17.70;99.90;;;;;;5079545;28;20209;-55
2023/08/10 08:43:10;;;;;;;6.97;1.67;;;17.60;99.90;;;;;;5079320;28;20242;-54
2023/08/10 08:45:36;;;;;;;5.17;2.40;;;17.70;99.90;;;;;;5076027;28;20194;-53
2023/08/10 08:48:03;;;;;;;5.97;1.40;;;17.50;99.90;;;;;;5081069;28;20190;-52
2023/08/10 08:50:29;;;;;;;9.50;1.67;;;17.40;99.90;;;;;;5081220;28;20209;-55
2023/08/10 08:52:55;;;;;;;2.87;1.13;;;17.50;99.90;;;;;;5081760;28;20251;-56
2023/08/10 08:55:21;;;;;;;7.23;2.87;;;17.50;99.90;;;;;;5080237;28;20221;-55
2023/08/10 08:57:47;;;;;;;5.93;1.57;;;17.60;99.90;;;;;;5063056;28;20229;-60
2023/08/10 09:00:13;;;;;;;2.60;1.33;;;17.70;99.90;;;;;;5079167;28;20741;-62
2023/08/10 09:02:39;;;;;;;3.00;1.77;;;17.70;99.90;;;;;;5059669;28;20198;-57
2023/08/10 09:05:06;;;;;;;3.00;1.43;;;17.50;99.90;;;;;;5080834;28;20637;-61
2023/08/10 09:07:31;;;;;;;4.90;1.57;;;17.40;99.90;;;;;;5080830;28;20587;-58
2023/08/10 09:09:58;;;;;;;6.47;1.50;;;17.60;99.90;;;;;;5076057;28;20586;-58
2023/08/10 09:12:40;;;;;;;2.33;1.60;;;17.60;99.90;;;;;;5060605;28;20209;-58
2023/08/10 09:15:07;;;;;;;5.67;2.03;;;17.50;99.90;;;;;;5080393;28;20779;-54
2023/08/10 09:17:34;;;;;;;3.40;2.10;;;17.60;99.90;;;;;;5081018;28;20179;-54
2023/08/10 09:20:00;;;;;;;5.40;1.70;;;17.70;99.90;;;;;;5081050;28;20182;-54
2023/08/10 09:22:33;;;;;;;4.47;1.67;;;17.90;99.90;;;;;;5061760;28;20212;-54
2023/08/10 09:24:59;;;;;;;5.23;1.50;;;18.20;99.90;;;;;;5079490;28;20307;-54
2023/08/10 09:27:28;;;;;;;4.27;1.83;;;18.50;99.90;;;;;;5078341;28;20191;-56
2023/08/10 09:29:59;;;;;;;2.03;1.20;;;18.60;99.90;;;;;;5080683;28;20240;-55
2023/08/10 09:32:25;;;;;;;4.90;1.70;;;18.60;99.90;;;;;;5082295;28;20191;-57
2023/08/10 09:34:54;;;;;;;5.53;1.63;;;18.70;99.90;;;;;;5080209;28;20194;-56
2023/08/10 09:37:20;;;;;;;9.57;1.97;;;18.70;99.90;;;;;;5080975;28;20538;-56
2023/08/10 09:39:47;;;;;;;4.33;1.23;;;18.90;99.90;;;;;;5078029;28;20186;-54
2023/08/10 09:42:12;;;;;;;5.67;1.30;;;18.90;99.90;;;;;;5079787;28;20190;-57
2023/08/10 09:44:50;;;;;;;5.97;1.97;;;19.00;99.90;;;;;;5073450;28;20201;-56
2023/08/10 09:47:17;;;;;;;2.27;1.23;;;19.10;99.90;;;;;;5071538;28;20198;-57
2023/08/10 09:50:00;;;;;;;3.53;1.33;;;18.80;99.90;;;;;;5080260;28;20215;-57
2023/08/10 09:52:27;;;;;;;6.47;2.00;;;18.50;99.90;;;;;;5059161;28;20196;-56
2023/08/10 09:54:56;;;;;;;2.87;1.23;;;18.30;99.90;;;;;;5077051;28;20226;-56
2023/08/10 09:57:25;;;;;;;2.97;1.73;;;18.30;99.90;;;;;;5081573;28;20587;-57
2023/08/10 09:59:52;;;;;;;5.30;1.60;;;18.40;99.90;;;;;;5080524;28;20616;-57
2023/08/10 10:02:20;;;;;;;4.63;2.00;;;18.50;99.90;;;;;;5079650;28;20281;-57
2023/08/10 10:04:46;;;;;;;3.50;1.40;;;19.00;99.90;;;;;;5077519;28;20285;-56
2023/08/10 10:07:12;;;;;;;5.50;1.73;;;19.10;99.50;;;;;;5082038;28;20952;-55
2023/08/10 10:09:40;;;;;;;7.53;1.73;;;19.20;99.00;;;;;;5075319;28;20405;-56
2023/08/10 10:12:13;;;;;;;7.03;1.83;;;19.50;98.60;;;;;;5076278;28;20179;-57
2023/08/10 10:14:44;;;;;;;4.83;1.60;;;19.40;99.70;;;;;;5078544;28;20215;-58
2023/08/10 10:17:15;;;;;;;3.63;1.47;;;19.00;99.80;;;;;;5077405;28;20786;-57
2023/08/10 10:19:41;;;;;;;4.47;2.00;;;18.80;99.80;;;;;;5079455;28;20387;-58
2023/08/10 10:22:07;;;;;;;4.83;1.80;;;18.90;99.90;;;;;;5078273;28;20274;-55
2023/08/10 10:24:34;;;;;;;6.70;2.03;;;19.10;99.90;;;;;;5080272;28;20211;-56
2023/08/10 10:27:02;;;;;;;1.87;1.23;;;19.10;99.90;;;;;;5075709;28;20910;-56
2023/08/10 10:29:56;;;;;;;1.67;1.53;;;19.30;99.90;;;;;;5084840;28;20236;-57
2023/08/10 10:32:22;;;;;;;2.57;1.47;;;19.20;99.90;;;;;;5085096;28;20710;-57
2023/08/10 10:34:53;;;;;;;3.07;1.60;;;18.90;99.90;;;;;;5084412;28;20304;-58
2023/08/10 10:37:29;;;;;;;3.73;2.03;;;18.80;99.90;;;;;;5079097;28;20593;-54
2023/08/10 10:40:14;;;;;;;2.73;1.83;;;19.30;99.80;;;;;;5077464;28;20235;-56
2023/08/10 10:43:06;;;;;;;3.77;1.90;;;18.80;99.90;;;;;;5088313;28;20217;-54
2023/08/10 10:45:43;;;;;;;4.33;1.47;;;19.20;99.80;;;;;;5080777;28;20179;-54
2023/08/10 10:48:32;;;;;;;4.23;1.60;;;19.10;99.90;;;;;;5081778;28;20659;-54
2023/08/10 10:51:01;;;;;;;5.77;1.83;;;19.10;99.90;;;;;;5085132;28;20273;-55
2023/08/10 10:53:27;;;;;;;1.40;1.30;;;19.10;99.90;;;;;;5084121;28;20189;-55
2023/08/10 10:55:53;;;;;;;6.17;2.00;;;19.00;99.80;;;;;;5083773;28;20629;-53
2023/08/10 10:58:19;;;;;;;5.43;1.60;;;18.80;99.90;;;;;;5080585;28;20207;-53
2023/08/10 11:00:45;;;;;;;1.37;1.33;;;18.90;99.90;;;;;;5083934;28;20735;-54
2023/08/10 11:03:13;;;;;;;4.40;1.83;;;19.10;99.90;;;;;;5083945;28;20261;-55
2023/08/10 11:05:39;;;;;;;3.27;1.27;;;19.30;99.90;;;;;;5084414;28;20716;-56
2023/08/10 11:08:08;;;;;;;3.63;1.40;;;19.00;99.90;;;;;;5076186;28;20274;-63
2023/08/10 11:10:38;;;;;;;3.27;1.30;;;18.70;99.90;;;;;;5078376;28;20226;-57
2023/08/10 11:13:05;;;;;;;3.97;1.73;;;18.60;99.90;;;;;;5082006;28;20187;-53
2023/08/10 11:15:30;;;;;;;9.70;2.90;;;18.50;99.90;;;;;;5076885;28;20887;-55
2023/08/10 11:17:57;;;;;;;6.17;2.67;;;18.40;99.90;;;;;;5081411;28;20213;-55
2023/08/10 11:20:23;;;;;;;2.70;1.30;;;18.40;99.90;;;;;;5060362;28;20192;-56
2023/08/10 11:22:56;;;;;;;3.20;1.77;;;18.40;99.90;;;;;;5064759;28;20201;-58
2023/08/10 11:25:24;;;;;;;2.53;2.07;;;18.60;99.90;;;;;;5079160;28;20548;-56
2023/08/10 11:27:52;;;;;;;4.60;1.87;;;18.60;99.90;;;;;;5063073;28;20210;-55
2023/08/10 11:30:19;;;;;;;2.67;1.70;;;18.60;99.90;;;;;;5082543;28;20257;-56
2023/08/10 11:32:49;;;;;;;8.60;2.50;;;18.50;99.90;;;;;;5082870;28;20383;-55
2023/08/10 11:35:20;;;;;;;4.67;1.57;;;18.50;99.90;;;;;;5082998;28;20201;-60
2023/08/10 11:37:47;;;;;;;4.27;1.53;;;18.70;99.90;;;;;;5055743;28;20267;-61
2023/08/10 11:40:15;;;;;;;3.33;1.43;;;18.70;99.90;;;;;;5080908;28;20190;-59
2023/08/10 11:42:42;;;;;;;5.00;2.00;;;19.30;99.90;;;;;;5082482;28;20193;-59
2023/08/10 11:45:17;;;;;;;6.57;1.57;;;19.60;99.70;;;;;;5078509;28;20200;-60
2023/08/10 11:47:44;;;;;;;6.10;2.17;;;20.00;99.60;;;;;;5082620;28;20179;-53
2023/08/10 11:50:13;;;;;;;5.03;1.70;;;20.00;99.90;;;;;;5081859;28;20209;-55
2023/08/10 11:52:39;;;;;;;2.73;1.70;;;20.00;99.90;;;;;;5082423;28;20189;-55
2023/08/10 11:55:12;;;;;;;5.53;1.40;;;19.90;99.90;;;;;;5082365;28;20617;-55
2023/08/10 11:57:42;;;;;;;2.60;1.60;;;20.30;99.90;;;;;;5082512;28;20272;-55
2023/08/10 12:00:22;;;;;;;9.47;2.13;;;20.50;99.90;;;;;;5082429;28;20536;-59
2023/08/10 12:03:23;;;;;;;5.60;1.40;;;21.00;99.00;;;;;;5079511;28;20178;-56
2023/08/10 12:05:51;;;;;;;5.17;1.60;;;21.60;95.80;;;;;;5063775;28;20174;-55
2023/08/10 12:08:28;;;;;;;6.18;1.83;;;22.20;94.50;;;;;;4958610;22;20228;-56
2023/08/10 12:11:09;;;;;;;7.43;2.20;;;22.40;95.10;;;;;;5082029;28;20296;-57
2023/08/10 12:13:44;;;;;;;2.58;1.17;;;21.90;96.00;;;;;;5071633;28;20195;-57
2023/08/10 12:16:10;;;;;;;2.17;1.33;;;21.50;96.20;;;;;;5090703;28;20189;-56
2023/08/10 12:18:37;;;;;;;3.60;1.60;;;20.70;96.00;;;;;;5078450;28;20894;-56
2023/08/10 12:21:03;;;;;;;3.63;1.60;;;20.50;98.70;;;;;;5068571;28;20230;-56
2023/08/10 12:23:28;;;;;;;2.50;1.30;;;20.60;98.60;;;;;;5068465;28;20221;-58
2023/08/10 12:25:54;;;;;;;2.43;1.83;;;21.00;98.60;;;;;;5068247;28;20216;-56
2023/08/10 12:28:20;;;;;;;2.60;1.50;;;21.50;96.80;;;;;;5065565;28;20193;-57
2023/08/10 12:30:46;;;;;;;2.70;1.50;;;21.50;96.50;;;;;;5071819;28;20910;-57
2023/08/10 12:33:12;;;;;;;2.28;1.27;;;21.80;95.40;;;;;;5066591;28;20313;-57
2023/08/10 12:35:39;;;;;;;3.92;1.58;;;21.60;95.60;;;;;;5074421;28;20335;-54
2023/08/10 12:38:05;;;;;;;2.55;1.50;;;21.90;93.20;;;;;;5073476;28;20190;-55
2023/08/10 12:40:31;;;;;;;3.15;1.20;;;21.90;95.10;;;;;;5068670;28;20202;-53
2023/08/10 12:42:58;;;;;;;2.17;1.42;;;22.10;93.50;;;;;;5075160;28;20521;-57
2023/08/10 12:45:24;;;;;;;2.83;1.92;;;22.70;95.10;;;;;;5069415;28;20174;-55
2023/08/10 12:47:50;;;;;;;5.05;2.40;;;23.20;93.90;;;;;;5070234;28;20197;-55